Time;durP1;ratioP1;P1;durP2;ratioP2;P2;SDS_P1;SDS_P2;PMS_P1;PMS_P2;Temp;Humidity;BMP_temperature;BMP_pressure;BME280_temperature;BME280_humidity;BME280_pressure;Samples;Min_cycle;Max_cycle;Signal;HPM_P1;HPM_P2
2020/12/14 00:00:13;;;;;;;48.87;29.15;;;;;;;3.84;77.89;94114.42;1767982;80;21158;-53
2020/12/14 00:02:42;;;;;;;50.03;30.57;;;;;;;3.77;77.64;94113.96;1776420;80;21614;-51
2020/12/14 00:05:11;;;;;;;57.78;34.33;;;;;;;3.69;77.86;94112.55;1771948;80;21073;-52
2020/12/14 00:07:39;;;;;;;55.33;31.10;;;;;;;3.66;77.78;94118.83;1757372;80;21511;-51
2020/12/14 00:10:08;;;;;;;52.80;31.17;;;;;;;3.63;77.92;94122.97;1759893;80;21069;-52
2020/12/14 00:12:36;;;;;;;56.95;31.77;;;;;;;3.66;77.92;94124.27;1767391;80;21639;-53
2020/12/14 00:15:05;;;;;;;50.75;30.37;;;;;;;3.66;77.81;94117.47;1756312;80;21052;-52
2020/12/14 00:17:33;;;;;;;52.40;30.55;;;;;;;3.67;77.98;94127.77;1751069;80;21149;-50
2020/12/14 00:20:03;;;;;;;53.30;29.65;;;;;;;3.72;78.04;94127.28;1759022;80;22243;-52
2020/12/14 00:22:34;;;;;;;46.80;29.18;;;;;;;3.78;77.88;94137.26;1760781;80;21598;-51
2020/12/14 00:25:03;;;;;;;56.83;29.02;;;;;;;3.76;77.58;94142.93;1779896;80;21143;-51
2020/12/14 00:27:32;;;;;;;49.18;25.97;;;;;;;3.67;77.66;94140.77;1760441;80;21168;-51
2020/12/14 00:30:00;;;;;;;68.72;35.90;;;;;;;3.61;77.63;94141.66;1749251;80;21142;-51
2020/12/14 00:32:28;;;;;;;58.80;33.78;;;;;;;3.56;77.88;94145.65;1748241;81;22041;-51
2020/12/14 00:34:57;;;;;;;108.25;51.77;;;;;;;3.59;78.06;94142.09;1762928;80;21092;-51
2020/12/14 00:37:26;;;;;;;70.62;39.15;;;;;;;3.64;78.02;94145.68;1783203;80;21084;-52
2020/12/14 00:39:54;;;;;;;55.33;32.13;;;;;;;3.66;77.81;94152.83;1775363;80;21575;-52
2020/12/14 00:42:23;;;;;;;48.55;29.32;;;;;;;3.62;77.98;94148.05;1779263;80;21135;-52
2020/12/14 00:44:51;;;;;;;62.95;35.50;;;;;;;3.65;78.07;94147.83;1756236;80;21645;-52
2020/12/14 00:47:19;;;;;;;58.00;32.98;;;;;;;3.65;77.88;94147.22;1760996;80;21190;-52
2020/12/14 00:49:48;;;;;;;76.28;41.30;;;;;;;3.64;77.84;94151.12;1779844;80;21064;-51
2020/12/14 00:52:16;;;;;;;61.40;34.53;;;;;;;3.63;77.80;94152.30;1769427;80;21048;-52
2020/12/14 00:54:45;;;;;;;49.77;30.80;;;;;;;3.59;77.80;94155.69;1770171;80;21127;-52
2020/12/14 00:57:14;;;;;;;42.65;26.48;;;;;;;3.51;77.87;94151.55;1769549;80;21811;-52
2020/12/14 00:59:43;;;;;;;42.83;28.15;;;;;;;3.43;78.16;94151.34;1779876;80;21122;-52
2020/12/14 01:02:11;;;;;;;41.40;26.42;;;;;;;3.39;78.39;94154.72;1757472;80;21097;-51
2020/12/14 01:04:39;;;;;;;41.48;26.90;;;;;;;3.41;78.64;94155.82;1767906;80;21461;-51
2020/12/14 01:07:08;;;;;;;44.73;29.12;;;;;;;3.48;78.52;94158.43;1765610;80;21571;-52
2020/12/14 01:09:36;;;;;;;53.17;35.10;;;;;;;3.50;78.36;94151.38;1761356;80;22301;-51
2020/12/14 01:12:05;;;;;;;49.98;30.75;;;;;;;3.51;78.52;94158.34;1761713;80;21163;-51
2020/12/14 01:14:34;;;;;;;52.65;32.38;;;;;;;3.55;78.50;94157.69;1771196;80;21123;-52
2020/12/14 01:17:02;;;;;;;46.05;29.18;;;;;;;3.57;78.35;94160.78;1758452;80;21255;-52
2020/12/14 01:19:31;;;;;;;64.53;38.70;;;;;;;3.56;78.26;94164.69;1748594;80;21198;-52
2020/12/14 01:22:00;;;;;;;71.70;39.80;;;;;;;3.52;78.34;94163.95;1752121;80;21434;-52
2020/12/14 01:24:28;;;;;;;56.77;34.63;;;;;;;3.50;78.30;94164.97;1761600;80;21261;-51
2020/12/14 01:26:57;;;;;;;39.08;26.23;;;;;;;3.53;78.52;94166.85;1764477;80;21490;-51
2020/12/14 01:29:25;;;;;;;42.48;27.27;;;;;;;3.51;78.26;94163.78;1779800;80;21578;-51
2020/12/14 01:31:53;;;;;;;34.40;23.98;;;;;;;3.48;78.33;94167.95;1753422;80;21087;-51
2020/12/14 01:34:22;;;;;;;38.85;25.95;;;;;;;3.46;78.39;94167.56;1760082;80;22264;-51
2020/12/14 01:36:51;;;;;;;35.30;24.18;;;;;;;3.39;78.46;94165.59;1760024;80;21065;-51
2020/12/14 01:39:20;;;;;;;41.42;26.45;;;;;;;3.32;78.53;94169.78;1760817;80;21109;-50
2020/12/14 01:41:50;;;;;;;38.65;25.92;;;;;;;3.26;78.86;94169.48;1756260;80;21076;-50
2020/12/14 01:44:18;;;;;;;41.37;26.85;;;;;;;3.31;79.07;94166.89;1755404;80;21073;-51
2020/12/14 01:46:47;;;;;;;46.33;29.63;;;;;;;3.39;79.10;94164.98;1765716;80;21496;-51
2020/12/14 01:49:15;;;;;;;46.77;30.17;;;;;;;3.48;79.12;94160.55;1756878;80;21097;-51
2020/12/14 01:51:44;;;;;;;46.73;29.92;;;;;;;3.57;78.97;94163.50;1750823;80;21190;-51
2020/12/14 01:54:30;;;;;;;51.08;30.68;;;;;;;3.65;78.77;94168.97;1751540;80;21602;-52
2020/12/14 01:56:58;;;;;;;49.15;30.48;;;;;;;3.73;78.57;94163.56;1758230;80;21480;-50
2020/12/14 01:59:26;;;;;;;50.80;31.87;;;;;;;3.78;78.19;94165.81;1751333;80;21492;-50
2020/12/14 02:01:55;;;;;;;48.20;31.37;;;;;;;3.77;78.07;94164.28;1752484;80;21079;-51
2020/12/14 02:04:23;;;;;;;49.55;31.65;;;;;;;3.83;78.18;94172.73;1776105;80;21132;-50
2020/12/14 02:06:52;;;;;;;45.48;30.10;;;;;;;3.89;77.88;94169.08;1764018;80;21175;-51
2020/12/14 02:09:21;;;;;;;46.98;28.90;;;;;;;3.92;77.48;94172.93;1755923;80;21464;-51
2020/12/14 02:11:49;;;;;;;58.15;34.43;;;;;;;3.86;77.56;94181.41;1767168;80;22257;-51
2020/12/14 02:14:18;;;;;;;61.48;37.73;;;;;;;3.81;77.63;94179.16;1761899;80;21060;-51
2020/12/14 02:16:46;;;;;;;59.30;36.10;;;;;;;3.81;77.59;94178.58;1766416;80;21073;-51
2020/12/14 02:19:15;;;;;;;45.58;30.23;;;;;;;3.87;77.64;94184.30;1756544;80;21156;-51
2020/12/14 02:21:44;;;;;;;46.45;29.75;;;;;;;3.91;77.51;94188.47;1769671;80;21095;-50
2020/12/14 02:24:15;;;;;;;53.25;30.50;;;;;;;3.98;77.60;94193.80;1773170;80;21454;-51
2020/12/14 02:26:50;;;;;;;40.65;27.98;;;;;;;4.11;77.30;94193.35;1753150;81;21183;-49
2020/12/14 02:29:19;;;;;;;43.10;27.00;;;;;;;4.17;76.98;94196.33;1754748;80;21104;-50
2020/12/14 02:31:47;;;;;;;40.05;25.77;;;;;;;4.19;76.65;94196.09;1775181;80;21061;-51
2020/12/14 02:34:16;;;;;;;50.50;28.70;;;;;;;4.19;76.51;94203.48;1760776;80;21560;-51
2020/12/14 02:36:44;;;;;;;64.95;35.23;;;;;;;4.16;76.38;94205.10;1755724;80;21371;-51
2020/12/14 02:39:13;;;;;;;55.17;31.45;;;;;;;4.16;76.38;94214.63;1772940;80;21076;-50
2020/12/14 02:41:42;;;;;;;47.98;28.77;;;;;;;4.18;76.54;94213.61;1766745;80;21630;-50
2020/12/14 02:44:10;;;;;;;39.42;26.07;;;;;;;4.29;76.61;94212.81;1768887;80;21080;-50
2020/12/14 02:46:40;;;;;;;45.33;28.47;;;;;;;4.44;76.33;94215.41;1775487;80;21488;-50
2020/12/14 02:49:09;;;;;;;51.13;29.80;;;;;;;4.57;75.91;94219.02;1745400;81;21210;-51
2020/12/14 02:51:37;;;;;;;52.78;30.57;;;;;;;4.64;75.46;94228.39;1765395;80;21579;-50
2020/12/14 02:54:05;;;;;;;62.90;35.40;;;;;;;4.67;75.32;94232.24;1756508;80;21561;-56
2020/12/14 02:56:35;;;;;;;63.13;36.25;;;;;;;4.66;74.99;94228.77;1747329;80;21128;-51
2020/12/14 02:59:03;;;;;;;48.75;28.83;;;;;;;4.63;74.82;94222.78;1750720;80;21567;-52
2020/12/14 03:01:31;;;;;;;48.98;29.85;;;;;;;4.55;74.80;94228.22;1768033;80;21251;-53
2020/12/14 03:04:00;;;;;;;45.28;26.90;;;;;;;4.44;74.91;94230.98;1760260;80;21059;-51
2020/12/14 03:06:28;;;;;;;39.80;24.12;;;;;;;4.34;75.15;94234.10;1757015;81;21079;-50
2020/12/14 03:08:57;;;;;;;39.27;25.30;;;;;;;4.30;75.20;94232.63;1746298;81;21155;-50
2020/12/14 03:11:25;;;;;;;43.85;25.12;;;;;;;4.24;75.35;94230.98;1761182;80;21567;-50
2020/12/14 03:13:53;;;;;;;37.90;23.27;;;;;;;4.22;75.45;94238.05;1762204;80;21159;-50
2020/12/14 03:16:22;;;;;;;39.30;25.17;;;;;;;4.21;75.49;94239.99;1776401;80;21092;-51
2020/12/14 03:18:50;;;;;;;36.13;24.30;;;;;;;4.21;75.66;94233.80;1766729;80;21044;-51
2020/12/14 03:21:19;;;;;;;36.70;26.50;;;;;;;4.26;75.61;94240.11;1767366;80;21170;-50
2020/12/14 03:23:47;;;;;;;47.17;29.07;;;;;;;4.29;75.49;94241.41;1743554;80;21468;-50
2020/12/14 03:26:16;;;;;;;40.23;28.42;;;;;;;4.28;75.46;94247.26;1770987;80;21148;-51
2020/12/14 03:28:45;;;;;;;44.77;28.15;;;;;;;4.25;75.46;94251.57;1768263;80;21575;-53
2020/12/14 03:31:13;;;;;;;41.90;27.20;;;;;;;4.20;75.56;94257.52;1755801;80;21187;-49
2020/12/14 03:33:42;;;;;;;35.43;26.23;;;;;;;4.15;75.72;94256.64;1772745;80;21067;-49
2020/12/14 03:36:10;;;;;;;37.78;25.92;;;;;;;4.18;75.97;94268.05;1765666;80;21485;-51
2020/12/14 03:38:39;;;;;;;44.58;28.10;;;;;;;4.30;75.93;94260.63;1756899;80;21371;-52
2020/12/14 03:41:07;;;;;;;43.33;27.13;;;;;;;4.35;75.41;94258.77;1746415;80;21103;-52
2020/12/14 03:43:36;;;;;;;56.05;33.88;;;;;;;4.38;75.46;94261.27;1760417;80;21083;-51
2020/12/14 03:46:04;;;;;;;51.63;30.77;;;;;;;4.36;75.51;94264.39;1763669;80;21088;-52
2020/12/14 03:48:32;;;;;;;57.83;33.40;;;;;;;4.44;75.50;94263.05;1766843;80;21616;-51
2020/12/14 03:51:01;;;;;;;51.95;31.57;;;;;;;4.52;75.32;94257.66;1774819;80;22099;-53
2020/12/14 03:53:30;;;;;;;46.80;27.90;;;;;;;4.60;74.90;94271.29;1766968;80;21191;-53
2020/12/14 03:55:59;;;;;;;57.35;36.42;;;;;;;4.58;74.64;94275.03;1763690;80;21197;-53
2020/12/14 03:58:28;;;;;;;45.90;29.42;;;;;;;4.51;74.66;94271.68;1760652;80;21052;-51
2020/12/14 04:00:57;;;;;;;32.63;22.62;;;;;;;4.50;74.77;94271.51;1743248;81;21091;-51
2020/12/14 04:03:26;;;;;;;33.05;22.30;;;;;;;4.47;74.60;94270.99;1776769;80;21207;-52
2020/12/14 04:05:55;;;;;;;31.50;21.42;;;;;;;4.40;74.70;94275.23;1761374;80;21130;-50
2020/12/14 04:08:24;;;;;;;24.18;17.67;;;;;;;4.33;74.91;94267.17;1774295;80;21120;-51
2020/12/14 04:10:53;;;;;;;26.25;18.57;;;;;;;4.30;75.03;94267.44;1756404;80;21249;-50
2020/12/14 04:13:21;;;;;;;29.18;20.00;;;;;;;4.26;75.00;94265.36;1750674;80;21459;-50
2020/12/14 04:15:49;;;;;;;30.08;20.97;;;;;;;4.30;75.23;94274.25;1778485;80;22171;-50
2020/12/14 04:18:18;;;;;;;37.48;26.80;;;;;;;4.38;75.08;94274.27;1775300;80;21075;-51
2020/12/14 04:20:49;;;;;;;63.78;40.30;;;;;;;4.45;74.89;94266.56;1769474;80;21469;-50
2020/12/14 04:23:19;;;;;;;63.48;39.55;;;;;;;4.46;74.78;94272.93;1761373;80;21139;-50
2020/12/14 04:25:48;;;;;;;56.15;37.42;;;;;;;4.52;74.96;94277.30;1760321;80;21055;-51
2020/12/14 04:28:17;;;;;;;49.10;31.17;;;;;;;4.60;74.62;94280.83;1755984;80;21199;-49
2020/12/14 04:30:45;;;;;;;38.00;25.50;;;;;;;4.63;74.45;94280.59;1759494;80;21152;-50
2020/12/14 04:33:14;;;;;;;31.05;22.07;;;;;;;4.65;74.23;94298.06;1755658;80;21148;-50
2020/12/14 04:35:43;;;;;;;39.53;27.73;;;;;;;4.60;74.12;94297.17;1759651;80;21144;-50
2020/12/14 04:38:11;;;;;;;32.75;23.92;;;;;;;4.51;74.14;94303.00;1751608;80;21633;-50
2020/12/14 04:40:40;;;;;;;28.27;19.70;;;;;;;4.44;74.36;94302.54;1761807;80;21362;-52
2020/12/14 04:43:09;;;;;;;25.82;19.37;;;;;;;4.36;74.57;94308.54;1755807;80;21079;-51
2020/12/14 04:45:37;;;;;;;22.93;17.45;;;;;;;4.24;74.78;94309.92;1761056;80;21131;-50
2020/12/14 04:48:08;;;;;;;21.12;15.48;;;;;;;4.19;75.20;94306.91;1774224;80;21054;-50
2020/12/14 04:50:39;;;;;;;23.95;17.32;;;;;;;4.22;75.23;94308.22;1746461;80;21635;-51
2020/12/14 04:53:08;;;;;;;26.20;17.60;;;;;;;4.20;75.16;94318.76;1761361;80;21207;-50
2020/12/14 04:55:36;;;;;;;23.62;17.12;;;;;;;4.17;75.29;94316.88;1776445;80;21167;-50
2020/12/14 04:58:05;;;;;;;28.80;18.67;;;;;;;4.18;75.19;94326.58;1772469;80;21596;-50
2020/12/14 05:00:35;;;;;;;29.35;19.42;;;;;;;4.18;75.37;94332.02;1767200;80;21115;-52
2020/12/14 05:03:03;;;;;;;27.58;21.00;;;;;;;4.26;75.47;94334.78;1757976;80;21176;-51
2020/12/14 05:05:32;;;;;;;30.00;20.20;;;;;;;4.40;75.48;94337.86;1761158;80;22117;-51
2020/12/14 05:08:00;;;;;;;31.10;21.62;;;;;;;4.51;75.05;94333.73;1757232;80;21085;-51
2020/12/14 05:10:29;;;;;;;25.90;17.17;;;;;;;4.56;74.68;94341.41;1765136;80;21484;-51
2020/12/14 05:12:57;;;;;;;23.32;17.60;;;;;;;4.53;74.46;94336.81;1739656;79;21064;-52
2020/12/14 05:15:28;;;;;;;22.32;17.27;;;;;;;4.44;74.57;94342.02;1760996;80;21155;-50
2020/12/14 05:18:15;;;;;;;29.10;18.92;;;;;;;4.37;74.60;94338.66;1751142;80;21203;-51
2020/12/14 05:21:02;;;;;;;25.40;18.70;;;;;;;4.35;74.79;94341.82;1789796;80;21591;-52
2020/12/14 05:23:34;;;;;;;30.57;22.42;;;;;;;4.44;74.86;94348.08;1779301;80;21074;-51
2020/12/14 05:26:07;;;;;;;37.95;24.70;;;;;;;4.57;74.63;94350.38;1758623;80;21186;-51
2020/12/14 05:28:37;;;;;;;29.95;22.65;;;;;;;4.60;74.26;94351.64;1772402;80;21135;-51
2020/12/14 05:31:07;;;;;;;35.30;24.18;;;;;;;4.59;74.30;94352.08;1757546;80;21602;-53
2020/12/14 05:33:35;;;;;;;35.40;23.27;;;;;;;4.65;74.14;94358.57;1744328;81;21567;-50
2020/12/14 05:36:04;;;;;;;39.25;24.47;;;;;;;4.72;73.92;94359.20;1758933;80;21124;-51
2020/12/14 05:38:33;;;;;;;54.53;33.33;;;;;;;4.75;73.38;94365.17;1756555;80;21512;-51
2020/12/14 05:41:03;;;;;;;35.10;22.82;;;;;;;4.64;73.32;94367.32;1762847;80;21265;-52
2020/12/14 05:43:33;;;;;;;27.58;19.37;;;;;;;4.59;73.45;94364.34;1754059;80;22251;-51
2020/12/14 05:46:15;;;;;;;31.60;22.65;;;;;;;4.55;73.63;94369.84;1747589;80;21176;-51
2020/12/14 05:48:44;;;;;;;31.57;22.77;;;;;;;4.56;73.85;94369.23;1748027;80;21144;-51
2020/12/14 05:51:13;;;;;;;33.30;22.70;;;;;;;4.61;73.54;94370.89;1745893;80;21170;-51
2020/12/14 05:53:48;;;;;;;41.20;25.92;;;;;;;4.61;73.42;94369.52;1754117;80;21072;-50
2020/12/14 05:56:17;;;;;;;33.08;23.20;;;;;;;4.58;73.70;94378.53;1766684;80;22270;-50
2020/12/14 05:58:48;;;;;;;39.92;27.35;;;;;;;4.62;73.56;94374.39;1756206;80;21159;-52
2020/12/14 06:01:17;;;;;;;43.08;28.02;;;;;;;4.59;73.29;94380.07;1770223;80;21108;-53
2020/12/14 06:03:46;;;;;;;34.27;24.82;;;;;;;4.50;73.32;94385.89;1779796;80;21134;-53
2020/12/14 06:06:15;;;;;;;30.88;21.48;;;;;;;4.44;73.42;94382.88;1727021;81;21121;-53
2020/12/14 06:09:08;;;;;;;35.65;25.37;;;;;;;4.35;73.61;94386.75;1759031;80;22127;-53
2020/12/14 06:11:37;;;;;;;29.50;21.13;;;;;;;4.27;74.04;94389.41;1760624;80;21201;-52
2020/12/14 06:14:05;;;;;;;29.92;20.72;;;;;;;4.24;74.29;94390.23;1766714;80;21596;-51
2020/12/14 06:16:35;;;;;;;27.02;19.77;;;;;;;4.24;74.28;94392.20;1753234;80;21163;-51
2020/12/14 06:19:05;;;;;;;25.45;19.17;;;;;;;4.22;74.32;94390.49;1764714;80;21060;-51
2020/12/14 06:21:47;;;;;;;29.85;21.05;;;;;;;4.19;74.40;94389.36;1759629;80;21445;-53
2020/12/14 06:24:22;;;;;;;52.88;34.10;;;;;;;4.19;74.51;94394.02;1763272;80;26245;-54
2020/12/14 06:26:51;;;;;;;53.30;35.23;;;;;;;4.17;74.41;94394.45;1758935;80;21069;-54
2020/12/14 06:29:38;;;;;;;50.60;33.80;;;;;;;4.14;74.58;94392.56;1758966;80;21489;-54
2020/12/14 06:32:33;;;;;;;56.05;36.35;;;;;;;4.13;74.58;94392.97;1750453;80;21143;-56
2020/12/14 06:35:16;;;;;;;74.70;42.58;;;;;;;4.12;74.68;94387.34;1753529;80;21380;-54
2020/12/14 06:37:53;;;;;;;52.83;33.70;;;;;;;4.07;74.83;94394.02;1754135;80;21620;-55
2020/12/14 06:40:21;;;;;;;62.08;36.08;;;;;;;4.07;74.83;94394.02;1750871;80;21503;-53
2020/12/14 06:42:50;;;;;;;91.60;54.42;;;;;;;4.08;74.89;94400.25;1749830;80;21682;-55
2020/12/14 06:45:21;;;;;;;92.65;54.65;;;;;;;4.11;74.91;94398.84;1753244;80;21081;-54
2020/12/14 06:47:52;;;;;;;74.27;45.33;;;;;;;4.14;75.26;94404.81;1656832;84;21505;-55
2020/12/14 06:50:28;;;;;;;75.65;48.23;;;;;;;4.24;75.32;94407.93;1696827;84;21081;-57
2020/12/14 06:53:00;;;;;;;75.05;47.27;;;;;;;4.34;75.16;94409.72;1697140;84;21248;-56
2020/12/14 06:55:46;;;;;;;75.03;47.05;;;;;;;4.42;74.83;94411.72;1696869;84;21597;-55
2020/12/14 06:58:33;;;;;;;52.35;34.18;;;;;;;4.40;74.84;94414.85;1696446;84;21192;-54
2020/12/14 07:01:03;;;;;;;69.62;43.83;;;;;;;4.38;74.82;94421.31;1699031;83;21465;-56
2020/12/14 07:03:37;;;;;;;68.78;43.30;;;;;;;4.36;74.73;94418.81;1693237;82;21072;-55
2020/12/14 07:06:05;;;;;;;64.15;45.03;;;;;;;4.32;74.83;94416.17;1717190;82;21573;-56
2020/12/14 07:08:38;;;;;;;60.12;41.35;;;;;;;4.29;75.21;94423.81;1695705;83;21501;-54
2020/12/14 07:11:11;;;;;;;;;;;;;;;4.38;75.19;94426.00;1735441;81;21508;-57
2020/12/14 07:13:40;;;;;;;55.23;38.27;;;;;;;4.50;75.11;94424.80;1727897;81;22236;-55
2020/12/14 07:16:10;;;;;;;54.60;34.23;;;;;;;4.54;74.76;94428.80;1730662;82;21357;-59
2020/12/14 07:18:40;;;;;;;52.50;37.98;;;;;;;4.57;74.62;94426.64;1718786;82;21071;-54
2020/12/14 07:21:15;;;;;;;44.35;31.65;;;;;;;4.59;74.56;94425.02;1719028;82;21494;-55
2020/12/14 07:23:46;;;;;;;45.17;30.90;;;;;;;4.63;74.39;94424.35;1718994;82;21197;-56
2020/12/14 07:26:16;;;;;;;44.00;30.50;;;;;;;4.61;74.28;94419.92;1725008;82;21368;-56
2020/12/14 07:28:51;;;;;;;53.92;38.23;;;;;;;4.58;74.28;94422.12;1767500;80;21186;-56
2020/12/14 07:31:21;;;;;;;58.80;39.15;;;;;;;4.55;74.51;94426.26;1759372;80;21085;-55
2020/12/14 07:33:56;;;;;;;47.55;30.72;;;;;;;4.55;74.61;94424.31;1748496;80;21076;-56
2020/12/14 07:36:26;;;;;;;49.23;32.48;;;;;;;4.63;74.63;94433.89;1724277;81;21099;-54
2020/12/14 07:38:58;;;;;;;53.33;34.90;;;;;;;4.64;74.30;94437.39;1771194;81;21320;-56
2020/12/14 07:41:27;;;;;;;48.25;33.65;;;;;;;4.59;74.51;94437.88;1764896;80;21144;-55
2020/12/14 07:43:56;;;;;;;52.55;33.35;;;;;;;4.60;74.50;94431.25;1752681;80;21543;-57
2020/12/14 07:46:33;;;;;;;53.25;37.65;;;;;;;4.63;74.60;94435.86;1746510;80;21133;-56
2020/12/14 07:51:45;;;;;;;52.50;34.10;;;;;;;4.65;74.45;94445.16;1873216;75;22698;-58
2020/12/14 07:54:18;;;;;;;42.85;29.37;;;;;;;4.57;74.53;94447.82;1840000;77;21184;-55
2020/12/14 07:59:31;;;;;;;56.40;35.92;;;;;;;4.58;74.42;94457.53;1888365;75;22955;-55
2020/12/14 08:02:00;;;;;;;54.00;32.85;;;;;;;4.52;74.48;94462.50;1775022;80;21059;-54
2020/12/14 08:04:32;;;;;;;75.45;40.92;;;;;;;4.55;74.69;94473.34;1773818;81;21260;-55
2020/12/14 08:07:00;;;;;;;77.95;42.20;;;;;;;4.64;74.57;94476.89;1806092;79;21084;-56
2020/12/14 08:09:42;;;;;;;76.87;41.33;;;;;;;4.66;74.54;94484.84;1792272;80;21107;-55
2020/12/14 08:12:10;;;;;;;52.38;33.02;;;;;;;4.68;74.47;94478.38;1772929;80;21040;-54
2020/12/14 08:14:39;;;;;;;55.25;34.33;;;;;;;4.70;74.33;94490.99;1849371;77;21170;-56
2020/12/14 08:17:12;;;;;;;52.93;33.30;;;;;;;4.63;74.28;94493.81;1822424;77;21192;-57
2020/12/14 08:45:14;;;;;;;44.18;26.50;;;;;;;4.92;74.20;94500.91;1823530;77;21178;-58
2020/12/14 08:47:43;;;;;;;46.55;32.17;;;;;;;5.07;73.79;94496.73;1821932;77;21056;-54
2020/12/14 08:50:13;;;;;;;33.28;23.05;;;;;;;5.10;73.61;94498.63;1819177;77;22373;-56
2020/12/14 08:52:42;;;;;;;43.78;28.55;;;;;;;5.21;73.49;94493.17;1815604;79;21174;-55
2020/12/14 08:55:11;;;;;;;34.85;23.27;;;;;;;5.26;73.10;94494.80;1825194;77;21115;-56
2020/12/14 08:57:40;;;;;;;33.40;21.73;;;;;;;5.33;72.51;94493.89;1818184;78;21205;-53
2020/12/14 09:00:11;;;;;;;73.33;41.42;;;;;;;5.31;72.01;94501.73;1839903;77;21112;-58
2020/12/14 09:02:40;;;;;;;81.02;44.03;;;;;;;5.18;72.14;94501.41;1843889;77;22128;-53
2020/12/14 09:05:17;;;;;;;56.10;31.85;;;;;;;5.08;72.57;94506.45;1839836;77;21178;-55
2020/12/14 09:07:46;;;;;;;29.35;21.27;;;;;;;5.04;72.67;94514.72;1810500;79;21158;-57
2020/12/14 09:10:23;;;;;;;26.42;19.02;;;;;;;5.02;72.95;94507.55;1810785;79;21595;-56
2020/12/14 09:12:53;;;;;;;31.40;21.70;;;;;;;5.05;72.96;94507.30;1810314;79;21486;-54
2020/12/14 09:15:25;;;;;;;24.30;18.82;;;;;;;5.14;73.07;94508.28;1788513;77;21464;-58
2020/12/14 09:18:04;;;;;;;28.42;21.35;;;;;;;5.25;72.79;94512.95;1843133;77;21143;-59
2020/12/14 09:20:34;;;;;;;36.65;26.97;;;;;;;5.26;72.56;94513.13;1843322;77;21682;-58
2020/12/14 09:23:04;;;;;;;44.65;30.60;;;;;;;5.27;72.69;94511.94;1842153;77;21174;-56
2020/12/14 09:25:33;;;;;;;32.30;21.75;;;;;;;5.33;72.81;94508.89;1833523;77;21201;-54
2020/12/14 09:28:02;;;;;;;34.10;23.22;;;;;;;5.41;72.74;94501.52;1810359;78;22749;-55
2020/12/14 09:30:31;;;;;;;37.90;26.00;;;;;;;5.44;72.61;94508.10;1810575;78;21125;-55
2020/12/14 09:32:59;;;;;;;32.25;22.93;;;;;;;5.45;72.66;94506.30;1810315;79;21659;-54
2020/12/14 09:35:28;;;;;;;31.00;20.12;;;;;;;5.42;72.64;94507.14;1810414;78;21048;-53
2020/12/14 09:37:57;;;;;;;35.92;24.32;;;;;;;5.40;72.85;94519.07;1810026;79;21159;-55
2020/12/14 09:40:26;;;;;;;43.25;27.48;;;;;;;5.42;73.00;94513.21;1810083;79;21204;-54
2020/12/14 09:42:55;;;;;;;39.63;27.15;;;;;;;5.47;72.75;94515.44;1810344;79;21172;-55
2020/12/14 09:45:23;;;;;;;41.37;22.75;;;;;;;5.46;72.66;94518.00;1837160;77;21567;-54
2020/12/14 09:47:53;;;;;;;40.75;24.37;;;;;;;5.45;72.36;94526.00;1843365;77;21310;-52
2020/12/14 09:50:23;;;;;;;46.33;26.75;;;;;;;5.38;72.37;94517.97;1843507;77;21222;-56
2020/12/14 09:52:52;;;;;;;46.53;26.95;;;;;;;5.33;72.41;94520.58;1843343;77;21327;-55
2020/12/14 09:55:23;;;;;;;41.05;25.50;;;;;;;5.32;72.53;94523.72;1833941;77;21234;-52
2020/12/14 09:57:51;;;;;;;36.60;23.50;;;;;;;5.37;72.69;94532.19;1810407;78;21194;-55
2020/12/14 10:00:21;;;;;;;32.20;23.02;;;;;;;5.41;72.68;94528.80;1818154;78;21182;-59
2020/12/14 10:02:51;;;;;;;27.15;19.52;;;;;;;5.48;72.72;94530.62;1843213;77;21673;-55
2020/12/14 10:05:22;;;;;;;27.20;18.77;;;;;;;5.52;72.71;94529.95;1837377;77;22590;-55
2020/12/14 10:07:50;;;;;;;31.77;21.82;;;;;;;5.54;72.80;94531.08;1851437;77;21186;-54
2020/12/14 10:10:19;;;;;;;28.40;18.85;;;;;;;5.59;72.70;94532.55;1851788;77;21035;-54
2020/12/14 10:12:48;;;;;;;32.20;22.17;;;;;;;5.66;72.56;94531.82;1825213;77;21103;-57
2020/12/14 10:15:17;;;;;;;30.52;20.75;;;;;;;5.72;72.60;94525.25;1818078;78;21177;-57
2020/12/14 10:17:45;;;;;;;31.25;20.92;;;;;;;5.75;72.38;94527.16;1817859;78;21150;-57
2020/12/14 10:20:14;;;;;;;30.00;21.55;;;;;;;5.80;71.96;94530.78;1831926;77;21190;-63
2020/12/14 10:22:43;;;;;;;32.95;21.42;;;;;;;5.83;71.69;94533.41;1851294;77;21491;-55
2020/12/14 10:25:12;;;;;;;31.37;21.75;;;;;;;5.87;71.86;94534.72;1851046;77;22202;-54
2020/12/14 10:27:41;;;;;;;31.00;22.73;;;;;;;6.02;71.56;94522.31;1818379;78;21499;-57
2020/12/14 10:30:10;;;;;;;31.23;21.42;;;;;;;6.09;71.09;94531.70;1818042;78;21369;-53
2020/12/14 10:32:39;;;;;;;34.55;24.00;;;;;;;6.14;71.03;94536.68;1818307;78;21534;-55
2020/12/14 10:35:09;;;;;;;34.30;24.70;;;;;;;6.19;70.88;94538.91;1817699;78;21508;-55
2020/12/14 10:37:38;;;;;;;29.18;20.60;;;;;;;6.25;70.75;94546.17;1846583;77;21200;-55
2020/12/14 10:40:07;;;;;;;36.55;23.77;;;;;;;6.30;70.72;94537.47;1818214;78;21100;-56
2020/12/14 10:42:35;;;;;;;35.83;25.37;;;;;;;6.37;70.64;94532.45;1824326;77;21256;-55
2020/12/14 10:45:04;;;;;;;34.67;23.10;;;;;;;6.47;70.46;94528.69;1817524;78;21202;-57
2020/12/14 10:47:33;;;;;;;32.67;22.27;;;;;;;6.58;70.22;94525.12;1818171;77;21078;-56
2020/12/14 10:50:04;;;;;;;35.13;22.32;;;;;;;6.63;70.13;94524.59;1816079;78;21162;-57
2020/12/14 10:52:32;;;;;;;37.48;24.32;;;;;;;6.74;69.59;94525.88;1822234;77;21503;-56
2020/12/14 10:55:04;;;;;;;39.55;25.37;;;;;;;6.85;69.46;94531.11;1817975;78;21198;-56
2020/12/14 10:57:35;;;;;;;36.68;25.75;;;;;;;6.91;69.27;94534.86;1817874;78;21273;-55
2020/12/14 11:00:10;;;;;;;31.17;20.27;;;;;;;7.01;69.04;94528.34;1817042;77;21202;-57
2020/12/14 11:02:43;;;;;;;33.20;23.18;;;;;;;7.02;68.48;94523.81;1819775;77;21052;-56
2020/12/14 11:05:12;;;;;;;32.95;22.35;;;;;;;7.03;68.43;94531.44;1826671;77;21111;-55
2020/12/14 11:07:42;;;;;;;25.25;17.12;;;;;;;7.06;68.39;94529.20;1847890;77;21512;-57
2020/12/14 11:10:11;;;;;;;28.05;19.23;;;;;;;7.14;68.39;94527.23;1818003;77;21524;-57
2020/12/14 11:12:43;;;;;;;30.00;19.15;;;;;;;7.10;68.03;94528.68;1848437;77;21171;-56
2020/12/14 11:15:12;;;;;;;31.87;21.37;;;;;;;7.10;68.23;94531.41;1847168;77;21070;-57
2020/12/14 11:17:41;;;;;;;30.85;21.20;;;;;;;7.19;68.58;94530.80;1848205;77;21092;-57
2020/12/14 11:20:09;;;;;;;29.10;20.60;;;;;;;7.34;68.16;94527.87;1848342;77;22040;-54
2020/12/14 11:22:40;;;;;;;29.18;20.55;;;;;;;7.54;67.78;94533.35;1848149;77;21468;-56
2020/12/14 11:25:11;;;;;;;23.60;18.40;;;;;;;7.66;67.49;94540.85;1848498;77;21119;-56
2020/12/14 11:27:40;;;;;;;28.75;20.88;;;;;;;7.77;67.12;94533.12;1848577;77;21487;-56
2020/12/14 11:30:09;;;;;;;28.40;17.82;;;;;;;7.83;66.63;94536.85;1848459;77;21039;-53
2020/12/14 11:32:38;;;;;;;34.95;22.55;;;;;;;7.86;66.69;94544.19;1848795;77;21270;-55
2020/12/14 11:35:07;;;;;;;33.45;22.80;;;;;;;7.83;66.62;94537.44;1858589;76;21126;-56
2020/12/14 11:37:35;;;;;;;25.95;17.65;;;;;;;7.71;66.52;94546.41;1864920;76;21126;-55
2020/12/14 11:40:06;;;;;;;24.37;16.90;;;;;;;7.63;66.63;94548.56;1811259;78;21539;-59
2020/12/14 11:42:34;;;;;;;30.00;18.80;;;;;;;7.49;66.75;94544.83;1827271;78;21606;-57
2020/12/14 11:45:07;;;;;;;38.85;23.55;;;;;;;7.47;66.95;94547.83;1826671;78;21207;-54
2020/12/14 11:47:33;;;;;;;30.43;20.05;;;;;;;7.47;67.31;94543.13;1825872;78;21161;-56
2020/12/14 11:50:06;;;;;;;28.75;19.90;;;;;;;7.55;67.03;94549.19;1815296;78;21014;-54
2020/12/14 11:52:35;;;;;;;27.02;17.35;;;;;;;7.62;66.87;94545.66;1815148;79;22227;-57
2020/12/14 11:55:06;;;;;;;29.80;19.60;;;;;;;7.74;66.82;94544.91;1814594;77;21130;-56
2020/12/14 11:57:34;;;;;;;27.65;17.70;;;;;;;7.72;66.46;94545.95;1819296;77;21399;-58
2020/12/14 12:00:06;;;;;;;24.10;16.75;;;;;;;7.70;66.61;94542.88;1814411;78;21638;-57
2020/12/14 12:02:35;;;;;;;23.73;16.37;;;;;;;7.64;66.77;94541.11;1814024;78;21155;-57
2020/12/14 12:05:07;;;;;;;24.17;17.30;;;;;;;7.60;66.67;94542.59;1814619;79;21202;-60
2020/12/14 12:07:35;;;;;;;22.40;15.63;;;;;;;7.60;66.81;94544.55;1811346;78;21178;-56